createdAt,value
2023-04-18T00:03:57.100Z,101459.40
2023-04-18T00:09:00.864Z,101460.40
2023-04-18T00:14:04.750Z,101458.60
2023-04-18T00:19:09.401Z,101459.00
2023-04-18T00:24:13.503Z,101453.20
2023-04-18T00:29:17.377Z,101451.20
2023-04-18T00:34:21.167Z,101453.40
2023-04-18T00:39:24.859Z,101447.60
2023-04-18T00:59:12.253Z,101449.00
2023-04-18T01:09:45.718Z,101460.60
2023-04-18T01:15:15.058Z,101457.00
2023-04-18T01:20:49.682Z,101453.20
2023-04-18T01:25:53.390Z,101454.60
2023-04-18T01:34:55.094Z,101456.00
2023-04-18T01:39:58.790Z,101456.40
2023-04-18T01:59:32.576Z,101468.60
2023-04-18T02:23:53.634Z,101465.20
2023-04-18T02:29:48.393Z,101461.80
2023-04-18T02:34:52.024Z,101459.20
2023-04-18T02:39:55.917Z,101460.00
2023-04-18T02:44:59.615Z,101454.40
2023-04-18T02:50:04.620Z,101455.80
2023-04-18T02:55:08.706Z,101453.20
2023-04-18T03:00:37.633Z,101452.80
2023-04-18T03:05:41.457Z,101455.80
2023-04-18T03:10:45.185Z,101456.80
2023-04-18T03:24:27.276Z,101454.00
2023-04-18T03:29:31.475Z,101457.60
2023-04-18T03:53:44.423Z,101462.20
2023-04-18T03:59:38.938Z,101462.60
2023-04-18T04:04:58.231Z,101460.40
2023-04-18T04:10:02.302Z,101464.80
2023-04-18T04:15:07.045Z,101470.20
2023-04-18T04:20:11.661Z,101474.60
2023-04-18T04:25:17.693Z,101472.60
2023-04-18T04:30:22.162Z,101472.80
2023-04-18T04:35:26.872Z,101477.20
2023-04-18T04:40:30.887Z,101479.00
2023-04-18T04:45:35.048Z,101483.80
2023-04-18T04:50:42.726Z,101490.20
2023-04-18T04:55:48.499Z,101492.40
2023-04-18T05:00:53.405Z,101491.40
2023-04-18T05:13:18.734Z,101496.60
2023-04-18T05:18:22.720Z,101497.00
2023-04-18T05:30:48.394Z,101513.60
2023-04-18T05:36:32.732Z,101516.80
2023-04-18T05:41:36.667Z,101515.20
2023-04-18T05:46:40.795Z,101517.20
2023-04-18T05:53:10.567Z,101513.80
2023-04-18T05:58:26.658Z,101508.80
2023-04-18T06:18:39.451Z,101506.80
2023-04-18T06:23:49.470Z,101495.00
2023-04-18T06:29:18.583Z,101499.20
2023-04-18T06:34:22.105Z,101496.00
2023-04-18T06:41:07.738Z,101499.40
2023-04-18T06:54:11.873Z,101501.40
2023-04-18T07:01:12.874Z,101513.20
2023-04-18T07:06:17.641Z,101515.00
2023-04-18T07:20:13.062Z,101513.80
2023-04-18T07:25:18.703Z,101518.00
2023-04-18T07:30:22.630Z,101514.40
2023-04-18T07:36:16.432Z,101516.00
2023-04-18T07:48:28.683Z,101521.20
2023-04-18T07:54:25.667Z,101521.40
2023-04-18T08:00:20.589Z,101525.40
2023-04-18T08:06:55.953Z,101518.20
2023-04-18T08:13:18.342Z,101523.60
2023-04-18T08:26:51.006Z,101518.20
2023-04-18T08:32:24.632Z,101531.00
2023-04-18T08:44:38.361Z,101511.00
2023-04-18T08:49:44.260Z,101513.20
2023-04-18T08:54:49.569Z,101515.40
2023-04-18T08:59:54.480Z,101510.60
2023-04-18T09:04:58.256Z,101504.60
2023-04-18T09:10:34.869Z,101498.80
2023-04-18T09:15:38.868Z,101498.40
2023-04-18T09:20:43.160Z,101495.00
2023-04-18T09:26:42.539Z,101492.20
2023-04-18T09:47:56.199Z,101490.40
2023-04-18T09:53:26.218Z,101490.80
2023-04-18T09:58:34.786Z,101485.40
2023-04-18T10:11:11.124Z,101485.40
2023-04-18T10:16:17.256Z,101480.00
2023-04-18T10:22:12.845Z,101482.60
2023-04-18T10:28:39.124Z,101465.40
2023-04-18T10:40:51.397Z,101470.20
2023-04-18T10:46:31.608Z,101472.20
2023-04-18T10:51:36.537Z,101466.20
2023-04-18T10:56:40.956Z,101455.60
2023-04-18T11:02:30.658Z,101453.80
2023-04-18T11:15:40.539Z,101448.80
2023-04-18T11:28:07.014Z,101455.40
2023-04-18T11:34:33.328Z,101437.40
2023-04-18T11:40:59.203Z,101435.00
2023-04-18T11:46:03.114Z,101422.20
2023-04-18T11:51:57.989Z,101420.60
2023-04-18T11:57:02.983Z,101439.80
2023-04-18T12:09:27.156Z,101430.00
2023-04-18T12:21:20.349Z,101422.80
2023-04-18T12:27:54.009Z,101421.00
2023-04-18T12:33:22.848Z,101417.20
2023-04-18T12:38:27.445Z,101415.40
2023-04-18T12:44:48.516Z,101409.20
2023-04-18T12:49:52.976Z,101409.20
2023-04-18T12:55:26.366Z,101407.00
2023-04-18T13:00:34.165Z,101391.00
2023-04-18T13:05:40.795Z,101372.20
2023-04-18T13:10:46.070Z,101372.80
2023-04-18T13:15:51.937Z,101386.40
2023-04-18T13:20:56.949Z,101387.80
2023-04-18T13:26:02.695Z,101386.20
2023-04-18T13:31:07.509Z,101382.20
2023-04-18T13:36:11.939Z,101380.40
2023-04-18T13:41:21.017Z,101376.40
2023-04-18T13:46:26.925Z,101375.80
2023-04-18T13:52:21.497Z,101382.00
2023-04-18T13:57:52.464Z,101379.40
2023-04-18T14:02:58.152Z,101384.00
2023-04-18T14:08:07.041Z,101380.40
2023-04-18T14:13:47.130Z,101379.40
2023-04-18T14:19:42.043Z,101373.00
2023-04-18T14:25:47.629Z,101371.40
2023-04-18T14:30:52.778Z,101363.60
2023-04-18T14:35:57.119Z,101359.00
2023-04-18T14:41:02.273Z,101373.20
2023-04-18T14:54:56.678Z,101375.80
2023-04-18T15:12:01.582Z,101374.20
2023-04-18T15:24:33.954Z,101379.40
2023-04-18T15:45:30.614Z,101369.60
2023-04-18T15:50:34.451Z,101368.40
2023-04-18T16:03:47.396Z,101366.60
2023-04-18T16:08:51.449Z,101367.60
2023-04-18T16:13:56.524Z,101366.20
2023-04-18T16:19:01.784Z,101363.80
2023-04-18T16:24:06.478Z,101357.80
2023-04-18T16:29:12.420Z,101351.20
2023-04-18T16:34:18.132Z,101348.00
2023-04-18T16:39:24.261Z,101347.20
2023-04-18T16:44:31.170Z,101343.20
2023-04-18T16:49:36.555Z,101339.40
2023-04-18T16:54:41.908Z,101341.00
2023-04-18T16:59:46.202Z,101341.40
2023-04-18T17:12:18.322Z,101341.40
2023-04-18T17:17:24.132Z,101340.60
2023-04-18T17:22:28.274Z,101347.00
2023-04-18T17:27:35.033Z,101340.00
2023-04-18T17:32:46.322Z,101344.60
2023-04-18T17:37:53.232Z,101349.80
2023-04-18T17:43:15.317Z,101349.60
2023-04-18T17:48:21.738Z,101356.40
2023-04-18T17:53:27.567Z,101357.80
2023-04-18T17:58:32.418Z,101361.40
2023-04-18T18:03:39.533Z,101363.00
2023-04-18T18:09:13.288Z,101370.20
2023-04-18T18:14:17.925Z,101371.60
2023-04-18T18:34:22.446Z,101369.60
2023-04-18T18:39:53.016Z,101363.40
2023-04-18T18:44:57.008Z,101351.60
2023-04-18T18:51:28.543Z,101349.20
2023-04-18T18:56:32.898Z,101348.60
2023-04-18T19:10:06.793Z,101340.20
2023-04-18T19:15:12.141Z,101336.00
2023-04-18T19:21:06.215Z,101331.20
2023-04-18T19:27:31.516Z,101324.60
2023-04-18T19:40:28.636Z,101318.80
2023-04-18T20:00:55.757Z,101297.00
2023-04-18T20:13:03.614Z,101288.20
2023-04-18T20:19:47.863Z,101280.00
2023-04-18T20:42:19.661Z,101260.40
2023-04-18T20:48:14.054Z,101260.60
2023-04-18T20:54:02.662Z,101252.40
2023-04-18T20:59:08.845Z,101247.00
2023-04-18T21:12:28.033Z,101233.00
2023-04-18T21:26:01.926Z,101220.80
2023-04-18T21:31:06.209Z,101219.40
2023-04-18T21:43:28.480Z,101216.80
2023-04-18T21:48:32.199Z,101211.00
2023-04-18T21:55:12.914Z,101208.80
2023-04-18T22:00:17.451Z,101210.20
2023-04-18T22:05:21.593Z,101207.00
2023-04-18T22:10:25.806Z,101198.00
2023-04-18T22:15:30.507Z,101193.80
2023-04-18T22:21:00.147Z,101184.00
2023-04-18T22:26:04.014Z,101185.20
2023-04-18T22:31:07.955Z,101176.60
2023-04-18T22:36:11.810Z,101173.40
2023-04-18T22:41:15.657Z,101166.60
2023-04-18T22:46:19.799Z,101163.00
2023-04-18T22:51:50.259Z,101168.60
2023-04-18T22:57:50.416Z,101159.80
2023-04-18T23:03:19.724Z,101151.60
2023-04-18T23:09:03.700Z,101141.40
2023-04-18T23:29:08.435Z,101111.00
2023-04-18T23:51:55.869Z,101081.40
2023-04-18T23:56:59.831Z,101071.20
